sensor_id;sensor_type;location;lat;lon;timestamp;temperature;humidity
10263;DHT22;5177;50.068;8.156;2022-08-16T00:00:58;20.60;66.20
10263;DHT22;5177;50.068;8.156;2022-08-16T00:03:23;20.70;61.90
10263;DHT22;5177;50.068;8.156;2022-08-16T00:05:49;20.70;59.00
10263;DHT22;5177;50.068;8.156;2022-08-16T00:08:15;20.70;57.60
10263;DHT22;5177;50.068;8.156;2022-08-16T00:10:41;20.70;43.80
10263;DHT22;5177;50.068;8.156;2022-08-16T00:13:07;20.70;46.60
10263;DHT22;5177;50.068;8.156;2022-08-16T00:15:37;20.70;34.30
10263;DHT22;5177;50.068;8.156;2022-08-16T00:18:04;20.80;29.50
10263;DHT22;5177;50.068;8.156;2022-08-16T00:20:30;20.80;22.60
10263;DHT22;5177;50.068;8.156;2022-08-16T00:22:56;20.70;22.40
10263;DHT22;5177;50.068;8.156;2022-08-16T00:25:22;20.70;29.50
10263;DHT22;5177;50.068;8.156;2022-08-16T00:27:48;20.70;28.60
10263;DHT22;5177;50.068;8.156;2022-08-16T00:30:14;20.60;29.30
10263;DHT22;5177;50.068;8.156;2022-08-16T00:32:41;20.60;37.40
10263;DHT22;5177;50.068;8.156;2022-08-16T00:35:08;20.60;41.00
10263;DHT22;5177;50.068;8.156;2022-08-16T00:37:35;20.50;40.80
10263;DHT22;5177;50.068;8.156;2022-08-16T00:40:01;20.50;43.90
10263;DHT22;5177;50.068;8.156;2022-08-16T00:42:27;20.50;47.50
10263;DHT22;5177;50.068;8.156;2022-08-16T00:44:54;20.40;52.00
10263;DHT22;5177;50.068;8.156;2022-08-16T00:47:21;20.40;55.20
10263;DHT22;5177;50.068;8.156;2022-08-16T00:49:47;20.30;60.50
10263;DHT22;5177;50.068;8.156;2022-08-16T00:52:13;20.30;64.00
10263;DHT22;5177;50.068;8.156;2022-08-16T00:54:38;20.30;70.70
10263;DHT22;5177;50.068;8.156;2022-08-16T00:57:04;20.30;73.60
10263;DHT22;5177;50.068;8.156;2022-08-16T00:59:31;20.30;63.80
10263;DHT22;5177;50.068;8.156;2022-08-16T01:01:57;20.30;63.60
10263;DHT22;5177;50.068;8.156;2022-08-16T01:04:24;20.20;65.20
10263;DHT22;5177;50.068;8.156;2022-08-16T01:06:50;20.20;70.40
10263;DHT22;5177;50.068;8.156;2022-08-16T01:09:16;20.10;83.70
10263;DHT22;5177;50.068;8.156;2022-08-16T01:11:41;20.10;84.80
10263;DHT22;5177;50.068;8.156;2022-08-16T01:14:11;20.00;90.30
10263;DHT22;5177;50.068;8.156;2022-08-16T01:16:37;20.00;92.60
10263;DHT22;5177;50.068;8.156;2022-08-16T01:19:18;20.00;95.00
10263;DHT22;5177;50.068;8.156;2022-08-16T01:21:58;20.00;95.20
10263;DHT22;5177;50.068;8.156;2022-08-16T01:24:34;19.90;99.00
10263;DHT22;5177;50.068;8.156;2022-08-16T01:27:02;19.90;98.30
10263;DHT22;5177;50.068;8.156;2022-08-16T01:29:31;19.80;99.90
10263;DHT22;5177;50.068;8.156;2022-08-16T01:31:58;19.80;99.90
10263;DHT22;5177;50.068;8.156;2022-08-16T01:34:23;19.80;99.90
10263;DHT22;5177;50.068;8.156;2022-08-16T01:36:55;19.80;99.90
10263;DHT22;5177;50.068;8.156;2022-08-16T01:39:20;19.80;99.90
10263;DHT22;5177;50.068;8.156;2022-08-16T01:41:48;19.80;99.90
10263;DHT22;5177;50.068;8.156;2022-08-16T01:44:13;19.80;99.90
10263;DHT22;5177;50.068;8.156;2022-08-16T01:46:43;19.80;99.90
10263;DHT22;5177;50.068;8.156;2022-08-16T01:49:12;19.70;99.90
10263;DHT22;5177;50.068;8.156;2022-08-16T01:51:39;19.70;99.90
10263;DHT22;5177;50.068;8.156;2022-08-16T01:54:05;19.60;99.90
10263;DHT22;5177;50.068;8.156;2022-08-16T01:56:31;19.60;99.90
10263;DHT22;5177;50.068;8.156;2022-08-16T01:58:57;19.60;99.90
10263;DHT22;5177;50.068;8.156;2022-08-16T02:01:24;19.50;99.90
10263;DHT22;5177;50.068;8.156;2022-08-16T02:03:50;19.60;99.90
10263;DHT22;5177;50.068;8.156;2022-08-16T02:06:15;19.60;99.90
10263;DHT22;5177;50.068;8.156;2022-08-16T02:08:41;19.50;99.90
10263;DHT22;5177;50.068;8.156;2022-08-16T02:11:08;19.50;99.90
10263;DHT22;5177;50.068;8.156;2022-08-16T02:13:34;19.50;99.90
10263;DHT22;5177;50.068;8.156;2022-08-16T02:15:59;19.50;99.90
10263;DHT22;5177;50.068;8.156;2022-08-16T02:18:25;19.50;99.90
10263;DHT22;5177;50.068;8.156;2022-08-16T02:20:51;19.50;99.90
10263;DHT22;5177;50.068;8.156;2022-08-16T02:23:17;19.50;99.90
10263;DHT22;5177;50.068;8.156;2022-08-16T02:25:43;19.50;99.90
10263;DHT22;5177;50.068;8.156;2022-08-16T02:28:08;19.40;99.90
10263;DHT22;5177;50.068;8.156;2022-08-16T02:30:34;19.40;99.90
10263;DHT22;5177;50.068;8.156;2022-08-16T02:33:00;19.30;99.90
10263;DHT22;5177;50.068;8.156;2022-08-16T02:35:25;19.40;99.90
10263;DHT22;5177;50.068;8.156;2022-08-16T02:40:55;19.40;99.90
10263;DHT22;5177;50.068;8.156;2022-08-16T02:43:22;19.30;99.90
10263;DHT22;5177;50.068;8.156;2022-08-16T02:45:48;19.30;99.90
10263;DHT22;5177;50.068;8.156;2022-08-16T02:48:13;19.30;99.90
10263;DHT22;5177;50.068;8.156;2022-08-16T02:50:39;19.30;99.90
10263;DHT22;5177;50.068;8.156;2022-08-16T02:53:04;19.30;99.90
10263;DHT22;5177;50.068;8.156;2022-08-16T02:55:29;19.30;99.90
10263;DHT22;5177;50.068;8.156;2022-08-16T02:57:55;19.30;99.90
10263;DHT22;5177;50.068;8.156;2022-08-16T03:00:20;19.20;99.90
10263;DHT22;5177;50.068;8.156;2022-08-16T03:02:46;19.20;99.90
10263;DHT22;5177;50.068;8.156;2022-08-16T03:05:13;19.20;99.90
10263;DHT22;5177;50.068;8.156;2022-08-16T03:07:39;19.20;99.90
10263;DHT22;5177;50.068;8.156;2022-08-16T03:10:06;19.20;99.90
10263;DHT22;5177;50.068;8.156;2022-08-16T03:12:32;19.20;99.90
10263;DHT22;5177;50.068;8.156;2022-08-16T03:14:58;19.20;99.90
10263;DHT22;5177;50.068;8.156;2022-08-16T03:17:23;19.10;99.90
10263;DHT22;5177;50.068;8.156;2022-08-16T03:19:50;19.10;99.90
10263;DHT22;5177;50.068;8.156;2022-08-16T03:22:18;19.10;99.90
10263;DHT22;5177;50.068;8.156;2022-08-16T03:24:44;19.00;99.90
10263;DHT22;5177;50.068;8.156;2022-08-16T03:27:09;19.00;99.90
10263;DHT22;5177;50.068;8.156;2022-08-16T03:29:35;19.00;99.90
10263;DHT22;5177;50.068;8.156;2022-08-16T03:32:01;18.90;99.90
10263;DHT22;5177;50.068;8.156;2022-08-16T03:34:28;18.90;99.90
10263;DHT22;5177;50.068;8.156;2022-08-16T03:36:54;18.90;99.90
10263;DHT22;5177;50.068;8.156;2022-08-16T03:39:19;18.90;99.90
10263;DHT22;5177;50.068;8.156;2022-08-16T03:41:44;18.90;99.90
10263;DHT22;5177;50.068;8.156;2022-08-16T03:44:10;18.90;99.90
10263;DHT22;5177;50.068;8.156;2022-08-16T03:46:35;18.90;99.90
10263;DHT22;5177;50.068;8.156;2022-08-16T03:49:01;18.80;99.90
10263;DHT22;5177;50.068;8.156;2022-08-16T03:51:27;18.80;99.90
10263;DHT22;5177;50.068;8.156;2022-08-16T03:53:52;18.70;99.90
10263;DHT22;5177;50.068;8.156;2022-08-16T03:56:18;18.70;99.90
10263;DHT22;5177;50.068;8.156;2022-08-16T03:58:43;18.70;99.90
10263;DHT22;5177;50.068;8.156;2022-08-16T04:01:09;18.70;99.90
10263;DHT22;5177;50.068;8.156;2022-08-16T04:03:35;18.60;99.90
10263;DHT22;5177;50.068;8.156;2022-08-16T04:06:00;18.50;99.90
10263;DHT22;5177;50.068;8.156;2022-08-16T04:11:29;18.40;99.90
10263;DHT22;5177;50.068;8.156;2022-08-16T04:13:54;18.40;99.90
10263;DHT22;5177;50.068;8.156;2022-08-16T04:16:19;18.40;99.90
10263;DHT22;5177;50.068;8.156;2022-08-16T04:18:45;18.40;99.90
10263;DHT22;5177;50.068;8.156;2022-08-16T04:21:11;18.30;99.90
10263;DHT22;5177;50.068;8.156;2022-08-16T04:26:39;18.30;99.90
10263;DHT22;5177;50.068;8.156;2022-08-16T04:29:05;18.30;99.90
10263;DHT22;5177;50.068;8.156;2022-08-16T04:31:30;18.30;99.90
10263;DHT22;5177;50.068;8.156;2022-08-16T04:33:55;18.30;99.90
10263;DHT22;5177;50.068;8.156;2022-08-16T04:36:24;18.30;99.90
10263;DHT22;5177;50.068;8.156;2022-08-16T04:38:59;18.30;99.90
10263;DHT22;5177;50.068;8.156;2022-08-16T04:41:24;18.30;99.90
10263;DHT22;5177;50.068;8.156;2022-08-16T04:43:50;18.30;99.90
10263;DHT22;5177;50.068;8.156;2022-08-16T04:46:15;18.40;99.90
10263;DHT22;5177;50.068;8.156;2022-08-16T04:48:41;18.40;99.90
10263;DHT22;5177;50.068;8.156;2022-08-16T04:51:08;18.40;99.90
10263;DHT22;5177;50.068;8.156;2022-08-16T04:56:24;18.50;99.90
10263;DHT22;5177;50.068;8.156;2022-08-16T04:58:49;18.50;99.90
10263;DHT22;5177;50.068;8.156;2022-08-16T05:01:15;18.40;99.90
10263;DHT22;5177;50.068;8.156;2022-08-16T05:03:42;18.40;99.90
10263;DHT22;5177;50.068;8.156;2022-08-16T05:06:08;18.40;99.90
10263;DHT22;5177;50.068;8.156;2022-08-16T05:11:33;18.40;99.90
10263;DHT22;5177;50.068;8.156;2022-08-16T05:13:58;18.40;99.90
10263;DHT22;5177;50.068;8.156;2022-08-16T05:16:27;18.50;99.90
10263;DHT22;5177;50.068;8.156;2022-08-16T05:18:53;18.50;99.90
10263;DHT22;5177;50.068;8.156;2022-08-16T05:21:19;18.50;99.90
10263;DHT22;5177;50.068;8.156;2022-08-16T05:23:45;18.50;99.90
10263;DHT22;5177;50.068;8.156;2022-08-16T05:26:20;18.60;99.90
10263;DHT22;5177;50.068;8.156;2022-08-16T05:28:46;18.60;99.90
10263;DHT22;5177;50.068;8.156;2022-08-16T05:31:11;18.70;99.90
10263;DHT22;5177;50.068;8.156;2022-08-16T05:33:37;18.70;99.90
10263;DHT22;5177;50.068;8.156;2022-08-16T05:36:03;18.80;99.90
10263;DHT22;5177;50.068;8.156;2022-08-16T05:38:28;18.90;99.90
10263;DHT22;5177;50.068;8.156;2022-08-16T05:40:54;18.90;99.90
10263;DHT22;5177;50.068;8.156;2022-08-16T05:43:20;19.00;99.90
10263;DHT22;5177;50.068;8.156;2022-08-16T05:45:46;19.00;99.90
10263;DHT22;5177;50.068;8.156;2022-08-16T05:48:11;19.10;99.90
10263;DHT22;5177;50.068;8.156;2022-08-16T05:50:37;19.10;99.90
10263;DHT22;5177;50.068;8.156;2022-08-16T05:53:02;19.20;99.90
10263;DHT22;5177;50.068;8.156;2022-08-16T05:55:28;19.30;99.90
10263;DHT22;5177;50.068;8.156;2022-08-16T05:57:53;19.30;99.90
10263;DHT22;5177;50.068;8.156;2022-08-16T06:00:19;19.40;99.90
10263;DHT22;5177;50.068;8.156;2022-08-16T06:02:44;19.50;99.90
10263;DHT22;5177;50.068;8.156;2022-08-16T06:05:10;19.60;99.90
10263;DHT22;5177;50.068;8.156;2022-08-16T06:07:35;19.60;99.90
10263;DHT22;5177;50.068;8.156;2022-08-16T06:10:01;19.70;99.90
10263;DHT22;5177;50.068;8.156;2022-08-16T06:12:27;19.80;99.90
10263;DHT22;5177;50.068;8.156;2022-08-16T06:14:53;19.90;99.90
10263;DHT22;5177;50.068;8.156;2022-08-16T06:17:23;20.10;99.90
10263;DHT22;5177;50.068;8.156;2022-08-16T06:19:48;20.20;99.90
10263;DHT22;5177;50.068;8.156;2022-08-16T06:22:14;20.30;99.90
10263;DHT22;5177;50.068;8.156;2022-08-16T06:24:39;20.30;99.90
10263;DHT22;5177;50.068;8.156;2022-08-16T06:27:05;20.40;99.90
10263;DHT22;5177;50.068;8.156;2022-08-16T06:29:30;20.40;99.90
10263;DHT22;5177;50.068;8.156;2022-08-16T06:31:56;20.50;99.90
10263;DHT22;5177;50.068;8.156;2022-08-16T06:34:21;20.60;99.10
10263;DHT22;5177;50.068;8.156;2022-08-16T06:36:47;20.70;93.40
10263;DHT22;5177;50.068;8.156;2022-08-16T06:39:12;20.90;78.10
10263;DHT22;5177;50.068;8.156;2022-08-16T06:41:38;20.90;64.40
10263;DHT22;5177;50.068;8.156;2022-08-16T06:44:03;21.00;60.70
10263;DHT22;5177;50.068;8.156;2022-08-16T06:46:30;21.10;34.40
10263;DHT22;5177;50.068;8.156;2022-08-16T06:52:02;21.20;21.90
10263;DHT22;5177;50.068;8.156;2022-08-16T06:54:28;21.20;24.70
10263;DHT22;5177;50.068;8.156;2022-08-16T06:56:54;21.30;28.10
10263;DHT22;5177;50.068;8.156;2022-08-16T07:02:03;21.40;20.40
10263;DHT22;5177;50.068;8.156;2022-08-16T07:04:29;21.50;16.60
10263;DHT22;5177;50.068;8.156;2022-08-16T07:06:55;21.60;5.60
10263;DHT22;5177;50.068;8.156;2022-08-16T07:09:20;21.70;1.00
10263;DHT22;5177;50.068;8.156;2022-08-16T07:11:46;21.80;1.00
10263;DHT22;5177;50.068;8.156;2022-08-16T07:14:11;22.00;1.00
10263;DHT22;5177;50.068;8.156;2022-08-16T07:16:37;22.10;1.00
10263;DHT22;5177;50.068;8.156;2022-08-16T07:19:04;22.20;1.00
10263;DHT22;5177;50.068;8.156;2022-08-16T07:21:30;22.30;1.00
10263;DHT22;5177;50.068;8.156;2022-08-16T07:23:55;22.40;1.00
10263;DHT22;5177;50.068;8.156;2022-08-16T07:26:22;22.50;1.00
10263;DHT22;5177;50.068;8.156;2022-08-16T07:28:47;22.60;1.00
10263;DHT22;5177;50.068;8.156;2022-08-16T07:31:13;22.70;1.00
10263;DHT22;5177;50.068;8.156;2022-08-16T07:33:39;22.80;1.00
10263;DHT22;5177;50.068;8.156;2022-08-16T07:36:05;22.90;1.00
10263;DHT22;5177;50.068;8.156;2022-08-16T07:38:31;23.00;1.00
10263;DHT22;5177;50.068;8.156;2022-08-16T07:40:57;22.90;1.00
10263;DHT22;5177;50.068;8.156;2022-08-16T07:43:23;22.90;1.00
10263;DHT22;5177;50.068;8.156;2022-08-16T07:45:48;23.00;1.00
10263;DHT22;5177;50.068;8.156;2022-08-16T07:51:17;23.10;1.00
10263;DHT22;5177;50.068;8.156;2022-08-16T07:53:43;23.10;1.00
10263;DHT22;5177;50.068;8.156;2022-08-16T07:56:09;23.20;1.00
10263;DHT22;5177;50.068;8.156;2022-08-16T07:58:35;23.30;1.00
10263;DHT22;5177;50.068;8.156;2022-08-16T08:01:00;23.50;1.00
10263;DHT22;5177;50.068;8.156;2022-08-16T08:03:29;23.80;99.90
10263;DHT22;5177;50.068;8.156;2022-08-16T08:05:55;23.70;99.90
10263;DHT22;5177;50.068;8.156;2022-08-16T08:08:20;23.70;99.90
10263;DHT22;5177;50.068;8.156;2022-08-16T08:10:46;23.80;99.90
10263;DHT22;5177;50.068;8.156;2022-08-16T08:13:11;24.10;99.90
10263;DHT22;5177;50.068;8.156;2022-08-16T08:15:36;24.20;35.10
10263;DHT22;5177;50.068;8.156;2022-08-16T08:18:02;24.30;2.10
10263;DHT22;5177;50.068;8.156;2022-08-16T08:20:28;24.40;1.00
10263;DHT22;5177;50.068;8.156;2022-08-16T08:23:05;24.60;99.90
10263;DHT22;5177;50.068;8.156;2022-08-16T08:25:32;24.60;1.00
10263;DHT22;5177;50.068;8.156;2022-08-16T08:27:57;24.70;99.90
10263;DHT22;5177;50.068;8.156;2022-08-16T08:30:24;25.00;1.00
10263;DHT22;5177;50.068;8.156;2022-08-16T08:32:50;24.90;1.00
10263;DHT22;5177;50.068;8.156;2022-08-16T08:38:12;24.90;1.00
10263;DHT22;5177;50.068;8.156;2022-08-16T08:40:37;25.00;1.00
10263;DHT22;5177;50.068;8.156;2022-08-16T08:43:03;25.10;1.00
10263;DHT22;5177;50.068;8.156;2022-08-16T08:45:29;25.10;1.00
10263;DHT22;5177;50.068;8.156;2022-08-16T08:47:54;25.30;1.00
10263;DHT22;5177;50.068;8.156;2022-08-16T08:50:21;25.50;99.90
10263;DHT22;5177;50.068;8.156;2022-08-16T08:52:46;25.80;27.50
10263;DHT22;5177;50.068;8.156;2022-08-16T08:55:13;25.80;1.00
10263;DHT22;5177;50.068;8.156;2022-08-16T08:57:39;26.00;1.00
10263;DHT22;5177;50.068;8.156;2022-08-16T09:00:05;25.90;99.90
10263;DHT22;5177;50.068;8.156;2022-08-16T09:02:32;26.10;99.90
10263;DHT22;5177;50.068;8.156;2022-08-16T09:04:57;26.20;6.70
10263;DHT22;5177;50.068;8.156;2022-08-16T09:07:41;26.40;99.90
10263;DHT22;5177;50.068;8.156;2022-08-16T09:10:07;26.50;99.90
10263;DHT22;5177;50.068;8.156;2022-08-16T09:12:33;26.40;1.00
10263;DHT22;5177;50.068;8.156;2022-08-16T09:14:59;26.50;99.90
10263;DHT22;5177;50.068;8.156;2022-08-16T09:17:25;26.50;99.90
10263;DHT22;5177;50.068;8.156;2022-08-16T09:19:50;26.60;1.00
10263;DHT22;5177;50.068;8.156;2022-08-16T09:22:16;26.70;99.90
10263;DHT22;5177;50.068;8.156;2022-08-16T09:24:43;26.90;99.90
10263;DHT22;5177;50.068;8.156;2022-08-16T09:27:08;27.10;99.90
10263;DHT22;5177;50.068;8.156;2022-08-16T09:29:34;26.90;99.90
10263;DHT22;5177;50.068;8.156;2022-08-16T09:31:59;26.90;99.90
10263;DHT22;5177;50.068;8.156;2022-08-16T09:34:25;26.90;99.90
10263;DHT22;5177;50.068;8.156;2022-08-16T09:36:51;27.10;21.30
10263;DHT22;5177;50.068;8.156;2022-08-16T09:39:16;27.40;99.90
10263;DHT22;5177;50.068;8.156;2022-08-16T09:41:43;27.50;99.90
10263;DHT22;5177;50.068;8.156;2022-08-16T09:44:08;27.80;1.00
10263;DHT22;5177;50.068;8.156;2022-08-16T09:46:34;27.90;1.00
10263;DHT22;5177;50.068;8.156;2022-08-16T09:48:59;27.70;1.00
10263;DHT22;5177;50.068;8.156;2022-08-16T09:51:25;27.80;99.90
10263;DHT22;5177;50.068;8.156;2022-08-16T09:53:53;27.70;1.00
10263;DHT22;5177;50.068;8.156;2022-08-16T09:56:29;27.60;1.00
10263;DHT22;5177;50.068;8.156;2022-08-16T09:58:55;27.70;99.90
10263;DHT22;5177;50.068;8.156;2022-08-16T10:01:21;28.00;1.00
10263;DHT22;5177;50.068;8.156;2022-08-16T10:03:47;27.80;1.00
10263;DHT22;5177;50.068;8.156;2022-08-16T10:06:12;27.80;1.00
10263;DHT22;5177;50.068;8.156;2022-08-16T10:08:38;28.00;1.00
10263;DHT22;5177;50.068;8.156;2022-08-16T10:11:03;28.20;1.00
10263;DHT22;5177;50.068;8.156;2022-08-16T10:13:47;28.40;1.00
10263;DHT22;5177;50.068;8.156;2022-08-16T10:16:13;28.60;99.90
10263;DHT22;5177;50.068;8.156;2022-08-16T10:18:39;28.90;99.90
10263;DHT22;5177;50.068;8.156;2022-08-16T10:21:05;28.90;35.60
10263;DHT22;5177;50.068;8.156;2022-08-16T10:23:30;28.90;1.00
10263;DHT22;5177;50.068;8.156;2022-08-16T10:25:56;28.90;1.00
10263;DHT22;5177;50.068;8.156;2022-08-16T10:28:23;29.30;1.00
10263;DHT22;5177;50.068;8.156;2022-08-16T10:30:49;29.60;99.90
10263;DHT22;5177;50.068;8.156;2022-08-16T10:33:14;29.60;99.90
10263;DHT22;5177;50.068;8.156;2022-08-16T10:35:41;29.70;99.90
10263;DHT22;5177;50.068;8.156;2022-08-16T10:38:06;29.90;99.90
10263;DHT22;5177;50.068;8.156;2022-08-16T10:40:32;30.00;99.90
10263;DHT22;5177;50.068;8.156;2022-08-16T10:42:58;30.10;99.90
10263;DHT22;5177;50.068;8.156;2022-08-16T10:45:27;30.30;99.90
10263;DHT22;5177;50.068;8.156;2022-08-16T10:47:54;30.00;30.70
10263;DHT22;5177;50.068;8.156;2022-08-16T10:50:19;29.90;77.70
10263;DHT22;5177;50.068;8.156;2022-08-16T10:52:45;29.60;99.90
10263;DHT22;5177;50.068;8.156;2022-08-16T10:55:11;29.60;99.90
10263;DHT22;5177;50.068;8.156;2022-08-16T10:57:38;29.90;43.80
10263;DHT22;5177;50.068;8.156;2022-08-16T11:00:05;29.80;98.70
10263;DHT22;5177;50.068;8.156;2022-08-16T11:02:43;29.90;99.90
10263;DHT22;5177;50.068;8.156;2022-08-16T11:05:11;29.80;99.90
10263;DHT22;5177;50.068;8.156;2022-08-16T11:07:37;30.20;68.30
10263;DHT22;5177;50.068;8.156;2022-08-16T11:10:03;30.30;32.00
10263;DHT22;5177;50.068;8.156;2022-08-16T11:12:29;30.50;45.40
10263;DHT22;5177;50.068;8.156;2022-08-16T11:14:54;30.80;1.00
10263;DHT22;5177;50.068;8.156;2022-08-16T11:17:20;30.90;1.00
10263;DHT22;5177;50.068;8.156;2022-08-16T11:19:45;31.10;1.00
10263;DHT22;5177;50.068;8.156;2022-08-16T11:22:12;31.20;1.00
10263;DHT22;5177;50.068;8.156;2022-08-16T11:27:30;31.50;1.00
10263;DHT22;5177;50.068;8.156;2022-08-16T11:32:49;31.40;1.00
10263;DHT22;5177;50.068;8.156;2022-08-16T11:35:16;31.60;1.00
10263;DHT22;5177;50.068;8.156;2022-08-16T11:37:43;31.90;1.00
10263;DHT22;5177;50.068;8.156;2022-08-16T11:40:09;32.00;1.00
10263;DHT22;5177;50.068;8.156;2022-08-16T11:42:35;32.10;1.00
10263;DHT22;5177;50.068;8.156;2022-08-16T11:45:00;32.00;1.00
10263;DHT22;5177;50.068;8.156;2022-08-16T11:47:26;31.70;1.00
10263;DHT22;5177;50.068;8.156;2022-08-16T11:49:51;31.10;1.00
10263;DHT22;5177;50.068;8.156;2022-08-16T11:52:17;30.80;1.00
10263;DHT22;5177;50.068;8.156;2022-08-16T11:54:44;30.80;1.00
10263;DHT22;5177;50.068;8.156;2022-08-16T11:57:10;31.00;1.00
10263;DHT22;5177;50.068;8.156;2022-08-16T11:59:36;31.10;1.00
10263;DHT22;5177;50.068;8.156;2022-08-16T12:02:02;31.30;1.00
10263;DHT22;5177;50.068;8.156;2022-08-16T12:04:31;31.30;1.00
10263;DHT22;5177;50.068;8.156;2022-08-16T12:06:56;31.20;1.00
10263;DHT22;5177;50.068;8.156;2022-08-16T12:09:22;31.30;1.00
10263;DHT22;5177;50.068;8.156;2022-08-16T12:11:48;31.70;1.00
10263;DHT22;5177;50.068;8.156;2022-08-16T12:14:13;32.00;1.00
10263;DHT22;5177;50.068;8.156;2022-08-16T12:16:39;32.10;1.00
10263;DHT22;5177;50.068;8.156;2022-08-16T12:19:05;32.20;1.00
10263;DHT22;5177;50.068;8.156;2022-08-16T12:21:32;32.10;1.00
10263;DHT22;5177;50.068;8.156;2022-08-16T12:24:16;31.50;1.00
10263;DHT22;5177;50.068;8.156;2022-08-16T12:26:42;31.50;1.00
10263;DHT22;5177;50.068;8.156;2022-08-16T12:29:07;31.50;1.00
10263;DHT22;5177;50.068;8.156;2022-08-16T12:31:33;31.10;1.00
10263;DHT22;5177;50.068;8.156;2022-08-16T12:33:58;30.50;1.00
10263;DHT22;5177;50.068;8.156;2022-08-16T12:36:24;30.20;1.00
10263;DHT22;5177;50.068;8.156;2022-08-16T12:38:50;30.30;1.00
10263;DHT22;5177;50.068;8.156;2022-08-16T12:41:16;30.70;1.00
10263;DHT22;5177;50.068;8.156;2022-08-16T12:43:41;31.00;1.00
10263;DHT22;5177;50.068;8.156;2022-08-16T12:46:08;31.50;1.00
10263;DHT22;5177;50.068;8.156;2022-08-16T12:48:34;31.90;1.00
10263;DHT22;5177;50.068;8.156;2022-08-16T12:51:18;31.90;1.00
10263;DHT22;5177;50.068;8.156;2022-08-16T12:53:46;31.90;1.00
10263;DHT22;5177;50.068;8.156;2022-08-16T12:56:12;31.90;1.00
10263;DHT22;5177;50.068;8.156;2022-08-16T12:58:38;32.20;1.00
10263;DHT22;5177;50.068;8.156;2022-08-16T13:01:05;32.50;1.00
10263;DHT22;5177;50.068;8.156;2022-08-16T13:03:30;32.60;1.00
10263;DHT22;5177;50.068;8.156;2022-08-16T13:05:56;32.70;1.00
10263;DHT22;5177;50.068;8.156;2022-08-16T13:08:23;32.80;1.00
10263;DHT22;5177;50.068;8.156;2022-08-16T13:10:49;33.10;99.90
10263;DHT22;5177;50.068;8.156;2022-08-16T13:13:18;33.20;99.90
10263;DHT22;5177;50.068;8.156;2022-08-16T13:15:51;33.20;99.90
10263;DHT22;5177;50.068;8.156;2022-08-16T13:18:17;33.20;99.90
10263;DHT22;5177;50.068;8.156;2022-08-16T13:20:42;33.40;99.90
10263;DHT22;5177;50.068;8.156;2022-08-16T13:23:09;33.40;99.90
10263;DHT22;5177;50.068;8.156;2022-08-16T13:25:36;33.50;99.90
10263;DHT22;5177;50.068;8.156;2022-08-16T13:28:02;33.60;99.90
10263;DHT22;5177;50.068;8.156;2022-08-16T13:30:29;33.70;99.90
10263;DHT22;5177;50.068;8.156;2022-08-16T13:32:54;33.60;99.90
10263;DHT22;5177;50.068;8.156;2022-08-16T13:38:23;33.50;99.90
10263;DHT22;5177;50.068;8.156;2022-08-16T13:40:48;33.50;99.90
10263;DHT22;5177;50.068;8.156;2022-08-16T13:43:14;33.40;99.90
10263;DHT22;5177;50.068;8.156;2022-08-16T13:45:40;33.10;99.90
10263;DHT22;5177;50.068;8.156;2022-08-16T13:48:07;33.00;99.90
10263;DHT22;5177;50.068;8.156;2022-08-16T13:50:32;33.10;99.90
10263;DHT22;5177;50.068;8.156;2022-08-16T13:52:58;33.10;99.90
10263;DHT22;5177;50.068;8.156;2022-08-16T13:55:23;33.40;99.90
10263;DHT22;5177;50.068;8.156;2022-08-16T13:57:49;33.20;99.90
10263;DHT22;5177;50.068;8.156;2022-08-16T14:00:15;33.20;99.90
10263;DHT22;5177;50.068;8.156;2022-08-16T14:02:47;33.50;99.90
10263;DHT22;5177;50.068;8.156;2022-08-16T14:05:13;33.60;99.90
10263;DHT22;5177;50.068;8.156;2022-08-16T14:07:39;34.10;99.90
10263;DHT22;5177;50.068;8.156;2022-08-16T14:10:05;34.40;99.90
10263;DHT22;5177;50.068;8.156;2022-08-16T14:12:31;34.40;99.90
10263;DHT22;5177;50.068;8.156;2022-08-16T14:14:58;34.80;99.90
10263;DHT22;5177;50.068;8.156;2022-08-16T14:17:25;35.60;99.90
10263;DHT22;5177;50.068;8.156;2022-08-16T14:19:51;35.90;99.90
10263;DHT22;5177;50.068;8.156;2022-08-16T14:22:21;36.10;99.90
10263;DHT22;5177;50.068;8.156;2022-08-16T14:24:48;36.90;99.90
10263;DHT22;5177;50.068;8.156;2022-08-16T14:27:15;37.30;99.90
10263;DHT22;5177;50.068;8.156;2022-08-16T14:29:40;37.70;99.90
10263;DHT22;5177;50.068;8.156;2022-08-16T14:32:16;37.90;99.90
10263;DHT22;5177;50.068;8.156;2022-08-16T14:34:42;38.40;99.90
10263;DHT22;5177;50.068;8.156;2022-08-16T14:37:07;38.30;99.90
10263;DHT22;5177;50.068;8.156;2022-08-16T14:39:48;38.50;99.90
10263;DHT22;5177;50.068;8.156;2022-08-16T14:42:19;38.60;99.90
10263;DHT22;5177;50.068;8.156;2022-08-16T14:44:45;38.70;99.90
10263;DHT22;5177;50.068;8.156;2022-08-16T14:47:11;39.00;99.90
10263;DHT22;5177;50.068;8.156;2022-08-16T14:49:37;39.00;99.90
10263;DHT22;5177;50.068;8.156;2022-08-16T14:52:04;39.20;99.90
10263;DHT22;5177;50.068;8.156;2022-08-16T14:54:30;39.30;99.90
10263;DHT22;5177;50.068;8.156;2022-08-16T14:57:13;39.00;99.90
10263;DHT22;5177;50.068;8.156;2022-08-16T14:59:40;39.40;99.90
10263;DHT22;5177;50.068;8.156;2022-08-16T15:02:14;39.70;99.90
10263;DHT22;5177;50.068;8.156;2022-08-16T15:04:40;39.30;99.90
10263;DHT22;5177;50.068;8.156;2022-08-16T15:07:05;39.70;99.90
10263;DHT22;5177;50.068;8.156;2022-08-16T15:09:31;39.20;99.90
10263;DHT22;5177;50.068;8.156;2022-08-16T15:12:03;39.20;99.90
10263;DHT22;5177;50.068;8.156;2022-08-16T15:14:29;39.10;99.90
10263;DHT22;5177;50.068;8.156;2022-08-16T15:16:54;38.90;99.90
10263;DHT22;5177;50.068;8.156;2022-08-16T15:19:20;39.00;99.90
10263;DHT22;5177;50.068;8.156;2022-08-16T15:21:46;38.90;99.90
10263;DHT22;5177;50.068;8.156;2022-08-16T15:24:12;38.70;99.90
10263;DHT22;5177;50.068;8.156;2022-08-16T15:26:37;38.20;99.90
10263;DHT22;5177;50.068;8.156;2022-08-16T15:29:03;38.40;99.90
10263;DHT22;5177;50.068;8.156;2022-08-16T15:31:29;38.30;99.90
10263;DHT22;5177;50.068;8.156;2022-08-16T15:33:55;38.20;99.90
10263;DHT22;5177;50.068;8.156;2022-08-16T15:36:20;38.10;99.90
10263;DHT22;5177;50.068;8.156;2022-08-16T15:38:47;37.60;99.90
10263;DHT22;5177;50.068;8.156;2022-08-16T15:43:56;38.10;99.90
10263;DHT22;5177;50.068;8.156;2022-08-16T15:46:22;37.40;99.90
10263;DHT22;5177;50.068;8.156;2022-08-16T15:48:48;36.30;99.90
10263;DHT22;5177;50.068;8.156;2022-08-16T15:51:13;35.10;99.90
10263;DHT22;5177;50.068;8.156;2022-08-16T15:53:39;34.00;99.90
10263;DHT22;5177;50.068;8.156;2022-08-16T15:56:04;33.20;99.90
10263;DHT22;5177;50.068;8.156;2022-08-16T15:58:30;32.40;99.90
10263;DHT22;5177;50.068;8.156;2022-08-16T16:00:56;31.90;99.90
10263;DHT22;5177;50.068;8.156;2022-08-16T16:03:23;31.40;99.90
10263;DHT22;5177;50.068;8.156;2022-08-16T16:05:50;31.20;99.90
10263;DHT22;5177;50.068;8.156;2022-08-16T16:08:17;30.90;99.90
10263;DHT22;5177;50.068;8.156;2022-08-16T16:10:44;30.70;99.90
10263;DHT22;5177;50.068;8.156;2022-08-16T16:13:22;30.40;99.90
10263;DHT22;5177;50.068;8.156;2022-08-16T16:15:49;30.30;99.90
10263;DHT22;5177;50.068;8.156;2022-08-16T16:18:15;30.20;1.00
10263;DHT22;5177;50.068;8.156;2022-08-16T16:20:43;30.10;1.00
10263;DHT22;5177;50.068;8.156;2022-08-16T16:23:10;30.10;1.00